createdAt,value
2023-01-08T00:01:44.220Z,4.09
2023-01-08T00:04:11.690Z,4.12
2023-01-08T00:06:39.340Z,4.09
2023-01-08T00:09:06.612Z,4.03
2023-01-08T00:11:34.222Z,4.10
2023-01-08T00:14:01.534Z,4.11
2023-01-08T00:16:31.024Z,4.07
2023-01-08T00:18:58.447Z,4.03
2023-01-08T00:21:25.955Z,4.11
2023-01-08T00:23:53.219Z,4.12
2023-01-08T00:26:21.333Z,4.04
2023-01-08T00:28:51.750Z,4.05
2023-01-08T00:31:19.457Z,4.12
2023-01-08T00:33:46.843Z,4.02
2023-01-08T00:36:16.948Z,4.01
2023-01-08T00:38:45.522Z,3.98
2023-01-08T00:41:14.680Z,3.96
2023-01-08T00:43:42.236Z,3.92
2023-01-08T00:46:09.975Z,3.88
2023-01-08T00:48:39.161Z,3.87
2023-01-08T00:51:08.427Z,3.85
2023-01-08T00:53:38.391Z,3.76
2023-01-08T00:56:10.532Z,3.77
2023-01-08T00:58:37.986Z,3.73
2023-01-08T01:01:13.715Z,3.69
2023-01-08T01:03:41.606Z,3.64
2023-01-08T01:06:11.030Z,3.64
2023-01-08T01:08:38.411Z,3.63
2023-01-08T01:11:10.440Z,3.61
2023-01-08T01:13:37.807Z,3.48
2023-01-08T01:16:05.726Z,3.54
2023-01-08T01:18:33.128Z,3.39
2023-01-08T01:21:00.642Z,3.29
2023-01-08T01:23:27.984Z,3.26
2023-01-08T01:25:55.654Z,3.25
2023-01-08T01:28:23.020Z,3.14
2023-01-08T01:30:56.020Z,3.03
2023-01-08T01:33:23.694Z,3.00
2023-01-08T01:35:59.735Z,3.00
2023-01-08T01:38:26.955Z,2.99
2023-01-08T01:40:54.551Z,3.03
2023-01-08T01:43:42.184Z,3.05
2023-01-08T01:46:18.426Z,2.98
2023-01-08T01:48:46.754Z,2.94
2023-01-08T01:51:14.573Z,2.95
2023-01-08T01:53:41.912Z,2.91
2023-01-08T01:56:09.580Z,2.92
2023-01-08T01:58:37.277Z,2.91
2023-01-08T02:01:07.182Z,2.94
2023-01-08T02:03:37.329Z,2.93
2023-01-08T02:06:31.851Z,2.92
2023-01-08T02:09:14.146Z,2.93
2023-01-08T02:11:49.152Z,2.95
2023-01-08T02:14:39.575Z,2.97
2023-01-08T02:17:10.703Z,2.94
2023-01-08T02:19:42.663Z,2.94
2023-01-08T02:22:10.277Z,3.04
2023-01-08T02:24:46.474Z,3.03
2023-01-08T02:27:15.166Z,3.08
2023-01-08T02:29:42.837Z,3.04
2023-01-08T02:32:10.650Z,3.06
2023-01-08T02:34:37.835Z,3.10
2023-01-08T02:37:05.637Z,3.19
2023-01-08T02:39:41.593Z,3.14
2023-01-08T02:42:11.929Z,3.12
2023-01-08T02:44:46.399Z,3.17
2023-01-08T02:47:44.495Z,3.26
2023-01-08T02:50:32.343Z,3.25
2023-01-08T02:53:11.880Z,3.26
2023-01-08T02:55:42.008Z,3.22
2023-01-08T02:58:09.920Z,3.24
2023-01-08T03:00:38.178Z,3.29
2023-01-08T03:03:20.924Z,3.17
2023-01-08T03:06:11.204Z,3.27
2023-01-08T03:08:40.421Z,3.23
2023-01-08T03:11:12.109Z,3.16
2023-01-08T03:14:01.035Z,3.13
2023-01-08T03:16:33.638Z,3.03
2023-01-08T03:19:21.528Z,3.02
2023-01-08T03:21:50.888Z,2.88
2023-01-08T03:24:22.850Z,2.83
2023-01-08T03:26:52.809Z,2.81
2023-01-08T03:29:22.292Z,2.56
2023-01-08T03:31:51.156Z,2.62
2023-01-08T03:34:20.715Z,2.52
2023-01-08T03:36:50.933Z,2.51
2023-01-08T03:39:34.529Z,2.51
2023-01-08T03:42:02.345Z,2.40
2023-01-08T03:44:29.956Z,2.29
2023-01-08T03:46:57.786Z,2.24
2023-01-08T03:49:26.703Z,2.27
2023-01-08T03:51:53.990Z,2.25
2023-01-08T03:54:24.897Z,2.21
2023-01-08T03:56:52.298Z,2.21
2023-01-08T03:59:19.987Z,2.20
2023-01-08T04:01:47.371Z,2.19
2023-01-08T04:04:15.324Z,2.16
2023-01-08T04:06:42.699Z,2.18
2023-01-08T04:09:10.519Z,2.14
2023-01-08T04:11:37.880Z,2.20
2023-01-08T04:14:05.500Z,2.13
2023-01-08T04:16:34.851Z,2.16
2023-01-08T04:19:02.481Z,2.17
2023-01-08T04:21:29.789Z,2.15
2023-01-08T04:23:57.672Z,2.18
2023-01-08T04:26:25.037Z,2.20
2023-01-08T04:28:52.625Z,2.14
2023-01-08T04:31:20.052Z,2.21
2023-01-08T04:33:47.716Z,2.23
2023-01-08T04:36:15.117Z,2.18
2023-01-08T04:38:42.694Z,2.21
2023-01-08T04:41:10.139Z,2.28
2023-01-08T04:43:37.768Z,2.33
2023-01-08T04:46:07.816Z,2.28
2023-01-08T04:48:35.802Z,2.24
2023-01-08T04:51:04.157Z,2.25
2023-01-08T04:53:36.006Z,2.26
2023-01-08T04:56:08.291Z,2.26
2023-01-08T04:58:36.801Z,2.17
2023-01-08T05:01:12.735Z,2.20
2023-01-08T05:03:40.744Z,2.25
2023-01-08T05:06:08.538Z,2.22
2023-01-08T05:08:36.203Z,2.31
2023-01-08T05:11:03.599Z,2.29
2023-01-08T05:13:31.602Z,2.32
2023-01-08T05:16:00.423Z,2.33
2023-01-08T05:18:30.034Z,2.39
2023-01-08T05:21:02.332Z,2.37
2023-01-08T05:23:30.962Z,2.37
2023-01-08T05:26:03.290Z,2.33
2023-01-08T05:28:31.155Z,2.37
2023-01-08T05:30:58.524Z,2.33
2023-01-08T05:33:26.664Z,2.32
2023-01-08T05:35:54.026Z,2.25
2023-01-08T05:38:21.655Z,2.32
2023-01-08T05:40:51.786Z,2.24
2023-01-08T05:43:19.560Z,2.21
2023-01-08T05:45:46.884Z,2.32
2023-01-08T05:48:14.497Z,2.23
2023-01-08T05:50:41.903Z,2.33
2023-01-08T05:53:10.202Z,2.33
2023-01-08T05:55:37.589Z,2.36
2023-01-08T05:58:06.037Z,2.33
2023-01-08T06:00:35.269Z,2.43
2023-01-08T06:03:02.873Z,2.33
2023-01-08T06:05:31.631Z,2.36
2023-01-08T06:08:00.035Z,2.37
2023-01-08T06:10:27.653Z,2.32
2023-01-08T06:12:56.259Z,2.30
2023-01-08T06:15:23.427Z,2.30
2023-01-08T06:17:50.936Z,2.28
2023-01-08T06:20:18.354Z,2.24
2023-01-08T06:22:46.185Z,2.29
2023-01-08T06:25:13.509Z,2.23
2023-01-08T06:27:41.158Z,2.27
2023-01-08T06:30:09.978Z,2.27
2023-01-08T06:32:37.640Z,2.28
2023-01-08T06:35:05.303Z,2.28
2023-01-08T06:37:32.843Z,2.28
2023-01-08T06:40:00.153Z,2.24
2023-01-08T06:42:27.893Z,2.27
2023-01-08T06:44:55.215Z,2.31
2023-01-08T06:47:22.855Z,2.32
2023-01-08T06:49:49.994Z,2.36
2023-01-08T06:52:17.845Z,2.37
2023-01-08T06:54:45.253Z,2.31
2023-01-08T06:57:13.067Z,2.30
2023-01-08T06:59:40.370Z,2.35
2023-01-08T07:02:16.327Z,2.28
2023-01-08T07:04:43.859Z,2.34
2023-01-08T07:07:15.367Z,2.31
2023-01-08T07:09:42.978Z,2.30
2023-01-08T07:12:14.110Z,2.30
2023-01-08T07:14:41.523Z,2.30
2023-01-08T07:17:09.332Z,2.22
2023-01-08T07:19:36.520Z,2.31
2023-01-08T07:22:04.240Z,2.31
2023-01-08T07:24:31.547Z,2.31
2023-01-08T07:26:59.242Z,2.25
2023-01-08T07:29:27.287Z,2.28
2023-01-08T07:31:55.016Z,2.24
2023-01-08T07:34:22.409Z,2.29
2023-01-08T07:36:49.930Z,2.23
2023-01-08T07:39:17.175Z,2.27
2023-01-08T07:41:44.644Z,2.24
2023-01-08T07:44:12.653Z,2.20
2023-01-08T07:46:40.477Z,2.20
2023-01-08T07:49:07.994Z,2.25
2023-01-08T07:51:35.571Z,2.27
2023-01-08T07:54:02.817Z,2.29
2023-01-08T07:56:30.505Z,2.24
2023-01-08T07:58:58.184Z,2.26
2023-01-08T08:01:26.584Z,2.24
2023-01-08T08:03:53.972Z,2.15
2023-01-08T08:06:21.530Z,2.22
2023-01-08T08:08:48.819Z,2.22
2023-01-08T08:11:16.591Z,2.19
2023-01-08T08:13:45.283Z,2.19
2023-01-08T08:16:13.551Z,2.21
2023-01-08T08:18:41.021Z,2.26
2023-01-08T08:21:08.767Z,2.17
2023-01-08T08:23:36.873Z,2.25
2023-01-08T08:26:05.296Z,2.18
2023-01-08T08:28:32.565Z,2.18
2023-01-08T08:31:00.375Z,2.25
2023-01-08T08:33:27.691Z,2.27
2023-01-08T08:35:55.351Z,2.24
2023-01-08T08:38:24.050Z,2.31
2023-01-08T08:40:51.648Z,2.36
2023-01-08T08:43:19.398Z,2.38
2023-01-08T08:45:47.054Z,2.34
2023-01-08T08:48:16.187Z,2.35
2023-01-08T08:50:43.899Z,2.40
2023-01-08T08:53:11.195Z,2.46
2023-01-08T08:55:38.994Z,2.47
2023-01-08T08:58:11.457Z,2.51
2023-01-08T09:00:40.777Z,2.52
2023-01-08T09:03:14.338Z,2.55
2023-01-08T09:05:43.350Z,2.57
2023-01-08T09:08:11.422Z,2.58
2023-01-08T09:10:41.625Z,2.65
2023-01-08T09:13:09.183Z,2.69
2023-01-08T09:15:38.072Z,2.68
2023-01-08T09:18:05.717Z,2.73
2023-01-08T09:20:33.483Z,2.78
2023-01-08T09:23:01.704Z,2.87
2023-01-08T09:25:30.760Z,2.76
2023-01-08T09:28:06.816Z,2.83
2023-01-08T09:30:35.076Z,2.88
2023-01-08T09:33:03.954Z,2.90
2023-01-08T09:35:32.859Z,2.89
2023-01-08T09:38:00.426Z,2.96
2023-01-08T09:40:57.995Z,2.90
2023-01-08T09:43:27.000Z,2.95
2023-01-08T09:46:00.283Z,3.03
2023-01-08T09:48:31.216Z,3.07
2023-01-08T09:50:59.216Z,3.09
2023-01-08T09:53:26.701Z,3.12
2023-01-08T09:56:18.148Z,3.13
2023-01-08T09:58:51.170Z,3.17
2023-01-08T10:01:22.480Z,3.18
2023-01-08T10:04:07.883Z,3.19
2023-01-08T10:06:35.555Z,3.14
2023-01-08T10:09:03.240Z,3.28
2023-01-08T10:11:44.409Z,3.30
2023-01-08T10:14:21.800Z,3.41
2023-01-08T10:16:57.424Z,3.42
2023-01-08T10:19:25.071Z,3.44
2023-01-08T10:21:53.564Z,3.44
2023-01-08T10:24:35.528Z,3.42
2023-01-08T10:27:13.706Z,3.52
2023-01-08T10:29:41.852Z,3.44
2023-01-08T10:32:20.730Z,3.42
2023-01-08T10:34:50.882Z,3.36
2023-01-08T10:37:27.200Z,3.36
2023-01-08T10:39:58.091Z,3.27
2023-01-08T10:42:26.326Z,3.30
2023-01-08T10:45:12.090Z,3.30
2023-01-08T10:47:39.762Z,3.30
2023-01-08T10:50:22.127Z,3.32
2023-01-08T10:52:54.823Z,3.31
2023-01-08T10:55:31.820Z,3.41
2023-01-08T10:58:00.193Z,3.49
2023-01-08T11:00:35.405Z,3.49
2023-01-08T11:03:06.372Z,3.52
2023-01-08T11:05:38.461Z,3.43
2023-01-08T11:08:08.782Z,3.39
2023-01-08T11:10:37.426Z,3.38
2023-01-08T11:13:07.357Z,3.33
2023-01-08T11:15:37.835Z,3.32
2023-01-08T11:18:06.958Z,3.35
2023-01-08T11:20:34.406Z,3.31
2023-01-08T11:23:28.380Z,3.36
2023-01-08T11:26:07.529Z,3.39
2023-01-08T11:28:42.862Z,3.40
2023-01-08T11:32:01.453Z,3.45
2023-01-08T11:34:34.211Z,3.38
2023-01-08T11:37:26.145Z,3.40
2023-01-08T11:39:54.301Z,3.42
2023-01-08T11:42:27.615Z,3.38
2023-01-08T11:45:13.470Z,3.41
2023-01-08T11:47:43.425Z,3.35
2023-01-08T11:50:14.212Z,3.37
2023-01-08T11:52:47.364Z,3.36
2023-01-08T11:55:24.279Z,3.38
2023-01-08T11:58:16.253Z,3.32
2023-01-08T12:00:53.321Z,3.38
2023-01-08T12:03:31.393Z,3.33
2023-01-08T12:06:11.595Z,3.39
2023-01-08T12:08:38.635Z,3.33
2023-01-08T12:11:23.409Z,3.29
2023-01-08T12:13:59.796Z,3.30
2023-01-08T12:16:40.978Z,3.25
2023-01-08T12:19:30.437Z,3.14
2023-01-08T12:22:10.553Z,3.23
2023-01-08T12:24:42.851Z,3.23
2023-01-08T12:27:54.514Z,3.25
2023-01-08T12:30:16.687Z,3.22
2023-01-08T12:32:49.243Z,3.07
2023-01-08T12:35:26.506Z,3.06
2023-01-08T12:38:03.436Z,2.99
2023-01-08T12:40:36.354Z,2.97
2023-01-08T12:43:08.052Z,2.95
2023-01-08T12:45:41.716Z,2.94
2023-01-08T12:48:21.464Z,2.99
2023-01-08T12:51:02.487Z,2.96
2023-01-08T12:53:51.843Z,3.04
2023-01-08T12:56:32.009Z,2.95
2023-01-08T12:59:05.196Z,2.87
2023-01-08T13:01:39.720Z,2.82
2023-01-08T13:04:09.805Z,2.74
2023-01-08T13:06:37.315Z,2.83
2023-01-08T13:09:05.174Z,2.80
2023-01-08T13:11:34.971Z,2.81
2023-01-08T13:14:05.908Z,2.83
2023-01-08T13:16:45.550Z,2.95
2023-01-08T13:19:26.075Z,2.90
2023-01-08T13:21:58.662Z,2.84
2023-01-08T13:24:42.955Z,2.82
2023-01-08T13:27:30.569Z,2.87
2023-01-08T13:29:58.452Z,2.92
2023-01-08T13:32:47.202Z,2.91
2023-01-08T13:35:14.974Z,2.90
2023-01-08T13:37:48.207Z,2.87
2023-01-08T13:40:50.092Z,2.86
2023-01-08T13:43:20.972Z,2.78
2023-01-08T13:46:14.042Z,2.87
2023-01-08T13:48:49.144Z,2.82
2023-01-08T13:51:34.889Z,2.81
2023-01-08T13:54:26.850Z,2.76
2023-01-08T13:56:56.090Z,2.76
2023-01-08T13:59:26.612Z,2.79
2023-01-08T14:02:00.223Z,2.70
2023-01-08T14:04:28.029Z,2.73
2023-01-08T14:07:14.680Z,2.71
2023-01-08T14:09:42.019Z,2.71
2023-01-08T14:12:15.696Z,2.74
2023-01-08T14:14:54.159Z,2.65
2023-01-08T14:17:28.306Z,2.60
2023-01-08T14:19:55.634Z,2.62
2023-01-08T14:22:36.206Z,2.61
2023-01-08T14:25:08.005Z,2.58
2023-01-08T14:27:35.817Z,2.53
2023-01-08T14:30:15.844Z,2.51
2023-01-08T14:32:45.036Z,2.51
2023-01-08T14:35:16.987Z,2.52
2023-01-08T14:37:44.730Z,2.48
2023-01-08T14:40:16.324Z,2.47
2023-01-08T14:42:53.348Z,2.48
2023-01-08T14:45:23.645Z,2.53
2023-01-08T14:47:54.643Z,2.53
2023-01-08T14:50:30.639Z,2.46
2023-01-08T14:53:10.690Z,2.46
2023-01-08T14:55:42.695Z,2.47
2023-01-08T14:58:22.752Z,2.36
2023-01-08T15:01:15.790Z,2.32
2023-01-08T15:03:47.533Z,2.38
2023-01-08T15:06:29.308Z,2.37
2023-01-08T15:08:57.566Z,2.31
2023-01-08T15:11:33.341Z,2.39
2023-01-08T15:14:00.938Z,2.35
2023-01-08T15:16:30.017Z,2.30
2023-01-08T15:19:11.918Z,2.34
2023-01-08T15:21:39.829Z,2.30
2023-01-08T15:24:07.867Z,2.35
2023-01-08T15:26:35.308Z,2.28
2023-01-08T15:29:06.092Z,2.27
2023-01-08T15:31:46.852Z,2.19
2023-01-08T15:34:17.373Z,2.12
2023-01-08T15:36:46.845Z,2.23
2023-01-08T15:39:14.515Z,2.19
2023-01-08T15:42:00.292Z,2.16
2023-01-08T15:44:27.984Z,2.22
2023-01-08T15:46:55.797Z,2.15
2023-01-08T15:49:23.506Z,2.24
2023-01-08T15:51:52.496Z,2.27
2023-01-08T15:54:23.219Z,2.28
2023-01-08T15:56:50.721Z,2.19
2023-01-08T15:59:18.225Z,2.28
2023-01-08T16:01:45.904Z,2.26
2023-01-08T16:04:13.671Z,2.24
2023-01-08T16:06:42.003Z,2.19
2023-01-08T16:09:09.737Z,2.11
2023-01-08T16:11:36.947Z,2.14
2023-01-08T16:14:04.621Z,2.16
2023-01-08T16:16:31.945Z,2.21
2023-01-08T16:18:59.787Z,2.21
2023-01-08T16:21:27.019Z,2.15
2023-01-08T16:23:54.624Z,2.11
2023-01-08T16:26:21.867Z,2.22
2023-01-08T16:28:49.736Z,2.17
2023-01-08T16:31:16.974Z,2.14
2023-01-08T16:33:44.691Z,2.20
2023-01-08T16:36:12.210Z,2.15
2023-01-08T16:38:39.891Z,2.11
2023-01-08T16:41:07.262Z,2.23
2023-01-08T16:43:40.801Z,2.14
2023-01-08T16:46:12.725Z,2.17
2023-01-08T16:48:42.009Z,2.19
2023-01-08T16:51:09.874Z,2.21
2023-01-08T16:53:37.905Z,2.17
2023-01-08T16:56:05.901Z,2.17
2023-01-08T16:58:35.124Z,2.27
2023-01-08T17:01:07.126Z,2.27
2023-01-08T17:03:35.146Z,2.24
2023-01-08T17:06:07.989Z,2.28
2023-01-08T17:08:45.324Z,2.22
2023-01-08T17:11:15.013Z,2.27
2023-01-08T17:13:43.576Z,2.26
2023-01-08T17:16:12.690Z,2.24
2023-01-08T17:18:40.905Z,2.29
2023-01-08T17:21:09.625Z,2.24
2023-01-08T17:23:37.755Z,2.27
2023-01-08T17:26:11.349Z,2.23
2023-01-08T17:28:39.240Z,2.27
2023-01-08T17:31:11.862Z,2.26
2023-01-08T17:33:39.620Z,2.28
2023-01-08T17:36:14.152Z,2.26
2023-01-08T17:38:45.110Z,2.30
2023-01-08T17:41:32.949Z,2.26
2023-01-08T17:44:00.733Z,2.29
2023-01-08T17:46:28.480Z,2.26
2023-01-08T17:48:56.090Z,2.28
2023-01-08T17:51:23.550Z,2.28
2023-01-08T17:53:51.152Z,2.35
2023-01-08T17:56:18.475Z,2.31
2023-01-08T17:58:49.478Z,2.34
2023-01-08T18:01:17.400Z,2.32
2023-01-08T18:03:45.668Z,2.37
2023-01-08T18:06:13.380Z,2.38
2023-01-08T18:08:41.718Z,2.36
2023-01-08T18:11:10.305Z,2.34
2023-01-08T18:13:38.535Z,2.36
2023-01-08T18:16:10.931Z,2.33
2023-01-08T18:18:39.661Z,2.28
2023-01-08T18:21:07.594Z,2.34
2023-01-08T18:23:35.290Z,2.37
2023-01-08T18:26:12.228Z,2.38
2023-01-08T18:28:40.500Z,2.38
2023-01-08T18:31:09.606Z,2.38
2023-01-08T18:33:37.800Z,2.34
2023-01-08T18:36:09.636Z,2.36
2023-01-08T18:38:47.420Z,2.39
2023-01-08T18:41:36.752Z,2.33
2023-01-08T18:44:06.291Z,2.40
2023-01-08T18:46:33.787Z,2.42
2023-01-08T18:49:01.577Z,2.48
2023-01-08T18:51:28.838Z,2.44
2023-01-08T18:53:56.537Z,2.53
2023-01-08T18:56:32.117Z,2.57
2023-01-08T18:59:00.006Z,2.46
2023-01-08T19:01:27.917Z,2.51
2023-01-08T19:03:56.092Z,2.57
2023-01-08T19:06:24.131Z,2.58
2023-01-08T19:08:52.338Z,2.58
2023-01-08T19:11:19.915Z,2.60
2023-01-08T19:13:47.824Z,2.61
2023-01-08T19:16:17.463Z,2.65
2023-01-08T19:18:45.076Z,2.63
2023-01-08T19:21:14.887Z,2.55
2023-01-08T19:23:42.814Z,2.62
2023-01-08T19:26:10.370Z,2.55
2023-01-08T19:28:38.085Z,2.52
2023-01-08T19:31:06.878Z,2.52
2023-01-08T19:33:35.950Z,2.56
2023-01-08T19:36:08.795Z,2.54
2023-01-08T19:38:36.717Z,2.54
2023-01-08T19:41:04.137Z,2.56
2023-01-08T19:43:43.866Z,2.61
2023-01-08T19:46:15.712Z,2.57
2023-01-08T19:48:44.321Z,2.55
2023-01-08T19:51:12.664Z,2.55
2023-01-08T19:53:40.632Z,2.62
2023-01-08T19:56:10.751Z,2.63
2023-01-08T19:58:38.932Z,2.73
2023-01-08T20:01:21.018Z,2.69
2023-01-08T20:03:49.332Z,2.79
2023-01-08T20:06:20.080Z,2.87
2023-01-08T20:08:53.423Z,2.81
2023-01-08T20:11:22.373Z,2.76
2023-01-08T20:13:51.651Z,2.74
2023-01-08T20:16:20.966Z,2.72
2023-01-08T20:18:49.090Z,2.75
2023-01-08T20:21:24.282Z,2.74
2023-01-08T20:24:01.749Z,2.75
2023-01-08T20:26:29.971Z,2.75
2023-01-08T20:28:58.499Z,2.72
2023-01-08T20:31:29.727Z,2.69
2023-01-08T20:33:59.364Z,2.69
2023-01-08T20:36:29.732Z,2.69
2023-01-08T20:39:00.181Z,2.71
2023-01-08T20:41:27.934Z,2.69
2023-01-08T20:43:58.865Z,2.66
2023-01-08T20:46:28.741Z,2.65
2023-01-08T20:48:59.926Z,2.65
2023-01-08T20:51:27.614Z,2.65
2023-01-08T20:53:55.695Z,2.70
2023-01-08T20:56:23.030Z,2.62
2023-01-08T20:58:50.723Z,2.64
2023-01-08T21:01:23.047Z,2.60
2023-01-08T21:03:54.571Z,2.60
2023-01-08T21:06:23.941Z,2.64
2023-01-08T21:08:53.925Z,2.61
2023-01-08T21:11:22.257Z,2.72
2023-01-08T21:13:51.155Z,2.69
2023-01-08T21:16:22.996Z,2.72
2023-01-08T21:18:51.377Z,2.70
2023-01-08T21:21:40.311Z,2.53
2023-01-08T21:24:10.193Z,2.71
2023-01-08T21:26:38.136Z,2.71
2023-01-08T21:29:07.032Z,2.71
2023-01-08T21:31:35.303Z,2.67
2023-01-08T21:34:04.151Z,2.71
2023-01-08T21:36:32.546Z,2.62
2023-01-08T21:39:01.533Z,2.57
2023-01-08T21:41:48.481Z,2.66
2023-01-08T21:44:42.994Z,2.64
2023-01-08T21:47:13.105Z,2.69
2023-01-08T21:49:41.332Z,2.70
2023-01-08T21:52:27.568Z,2.67
2023-01-08T21:54:56.360Z,2.69
2023-01-08T21:57:25.596Z,2.72
2023-01-08T21:59:53.488Z,2.69
2023-01-08T22:02:23.750Z,2.61
2023-01-08T22:04:57.143Z,2.70
2023-01-08T22:07:26.185Z,2.67
2023-01-08T22:09:55.104Z,2.71
2023-01-08T22:12:23.489Z,2.71
2023-01-08T22:14:55.540Z,2.72
2023-01-08T22:17:24.250Z,2.74
2023-01-08T22:19:52.478Z,2.69
2023-01-08T22:22:19.868Z,2.75
2023-01-08T22:24:47.785Z,2.75
2023-01-08T22:27:15.243Z,2.66
2023-01-08T22:29:43.195Z,2.77
2023-01-08T22:32:10.534Z,2.71
2023-01-08T22:34:38.293Z,2.74
2023-01-08T22:37:06.568Z,2.78
2023-01-08T22:39:34.065Z,2.80
2023-01-08T22:42:01.821Z,2.80
2023-01-08T22:44:29.595Z,2.83
2023-01-08T22:46:59.113Z,2.82
2023-01-08T22:49:26.965Z,2.81
2023-01-08T22:52:00.592Z,2.85
2023-01-08T22:54:28.427Z,2.86
2023-01-08T22:56:55.724Z,2.79
2023-01-08T22:59:23.914Z,2.78
2023-01-08T23:01:51.310Z,2.76
2023-01-08T23:04:19.291Z,2.78
2023-01-08T23:06:46.703Z,2.78
2023-01-08T23:09:14.731Z,2.76
2023-01-08T23:11:42.543Z,2.71
2023-01-08T23:14:13.619Z,2.69
2023-01-08T23:16:40.966Z,2.73
2023-01-08T23:19:08.786Z,2.70
2023-01-08T23:21:38.754Z,2.79
2023-01-08T23:24:08.351Z,2.78
2023-01-08T23:26:35.677Z,2.75
2023-01-08T23:29:03.531Z,2.70
2023-01-08T23:31:32.563Z,2.69
2023-01-08T23:34:00.297Z,2.64
2023-01-08T23:36:27.590Z,2.70
2023-01-08T23:38:56.407Z,2.75
2023-01-08T23:41:33.107Z,2.68
2023-01-08T23:44:05.058Z,2.71
2023-01-08T23:46:32.347Z,2.76
2023-01-08T23:49:00.020Z,2.74
2023-01-08T23:51:27.360Z,2.79
2023-01-08T23:53:55.142Z,2.73
2023-01-08T23:56:22.722Z,2.78
2023-01-08T23:58:50.654Z,2.78
